Terminal Aerodrome Forecast
Issued by NWS Wakefield, VA

Home | Current Version | Previous Version | Text Only | Print | Product List | Glossary On
Versions: 1 2 3 4 5 6 7 8 9 10 11 12 13 14 15 16
000
FTUS41 KAKQ 291700
TAFECG
TAF
KECG 291740Z 2918/3018 01005KT P6SM BKN040
     FM292000 04006KT P6SM SCT040
     FM300000 07005KT P6SM SKC
     FM301400 05004KT P6SM SCT250=

USA.gov is the U.S. government's official web portal to all federal, state and local government web resources and services.